Terminal Aerodrome Forecast
Issued by NWS Grand Forks, ND

Home | Current Version | Previous Version | Graphics & Text | Print | Product List | Glossary Off
Versions: 1 2 3 4 5 6 7 8 9 10 11 12 13 14 15 16 17

000
FTUS43 KFGF 281603 AAA
TAFFAR
TAF AMD
KFAR 281603Z 2816/2912 36004KT P6SM BKN015
      TEMPO 2816/2818 BKN009
     FM282000 03006KT P6SM FEW140
     FM290600 10004KT P6SM SKC=

USA.gov is the U.S. government's official web portal to all federal, state and local government web resources and services.